createdAt,value
2018-05-13T00:00:09.181Z,52.50
2018-05-13T00:02:35.655Z,52.48
2018-05-13T00:05:02.112Z,52.70
2018-05-13T00:07:28.561Z,53.25
2018-05-13T00:09:55.079Z,52.68
2018-05-13T00:12:21.539Z,53.15
2018-05-13T00:14:48.113Z,53.71
2018-05-13T00:17:14.709Z,52.64
2018-05-13T00:19:41.242Z,51.64
2018-05-13T00:22:07.672Z,51.53
2018-05-13T00:24:34.039Z,52.41
2018-05-13T00:27:00.561Z,52.49
2018-05-13T00:29:27.062Z,52.89
2018-05-13T00:31:53.556Z,52.45
2018-05-13T00:34:20.028Z,52.40
2018-05-13T00:36:46.465Z,52.77
2018-05-13T00:39:12.965Z,53.40
2018-05-13T00:41:39.377Z,53.43
2018-05-13T00:44:05.895Z,53.52
2018-05-13T00:46:32.329Z,54.24
2018-05-13T00:48:58.879Z,53.14
2018-05-13T00:51:25.364Z,53.45
2018-05-13T00:53:51.852Z,53.81
2018-05-13T00:56:18.360Z,52.88
2018-05-13T00:58:44.859Z,53.20
2018-05-13T01:01:11.326Z,53.55
2018-05-13T01:03:37.901Z,53.79
2018-05-13T01:06:04.426Z,53.78
2018-05-13T01:08:30.895Z,54.07
2018-05-13T01:10:57.434Z,54.14
2018-05-13T01:13:23.821Z,54.16
2018-05-13T01:15:50.293Z,53.12
2018-05-13T01:18:16.732Z,53.64
2018-05-13T01:20:43.212Z,53.59
2018-05-13T01:23:09.625Z,53.91
2018-05-13T01:25:36.104Z,53.76
2018-05-13T01:28:02.644Z,53.77
2018-05-13T01:30:29.099Z,53.96
2018-05-13T01:32:55.507Z,53.80
2018-05-13T01:35:21.991Z,53.59
2018-05-13T01:37:48.617Z,53.44
2018-05-13T01:40:14.997Z,54.23
2018-05-13T01:42:41.432Z,53.78
2018-05-13T01:45:07.883Z,52.93
2018-05-13T01:47:34.340Z,52.86
2018-05-13T01:50:00.781Z,53.35
2018-05-13T01:52:27.230Z,53.19
2018-05-13T01:54:53.714Z,52.63
2018-05-13T01:57:20.224Z,53.29
2018-05-13T01:59:46.546Z,54.49
2018-05-13T02:02:13.002Z,54.63
2018-05-13T02:04:39.517Z,54.89
2018-05-13T02:07:06.019Z,54.88
2018-05-13T02:09:32.673Z,55.27
2018-05-13T02:11:59.179Z,54.97
2018-05-13T02:14:25.615Z,55.74
2018-05-13T02:16:52.118Z,55.94
2018-05-13T02:19:18.590Z,56.54
2018-05-13T02:21:44.970Z,56.80
2018-05-13T02:24:11.552Z,56.83
2018-05-13T02:26:38.003Z,56.89
2018-05-13T02:29:04.378Z,57.61
2018-05-13T02:31:30.806Z,57.47
2018-05-13T02:33:57.238Z,57.32
2018-05-13T02:36:23.614Z,58.00
2018-05-13T02:38:50.021Z,57.22
2018-05-13T02:41:16.493Z,57.13
2018-05-13T02:43:42.878Z,57.25
2018-05-13T02:46:09.332Z,57.42
2018-05-13T02:48:35.773Z,57.36
2018-05-13T02:51:02.266Z,57.46
2018-05-13T02:53:29.342Z,57.35
2018-05-13T02:55:55.871Z,57.33
2018-05-13T02:58:22.352Z,57.52
2018-05-13T03:00:48.765Z,57.01
2018-05-13T03:03:15.210Z,56.34
2018-05-13T03:05:41.615Z,56.43
2018-05-13T03:08:08.094Z,56.52
2018-05-13T03:10:34.659Z,56.87
2018-05-13T03:13:01.026Z,57.33
2018-05-13T03:15:27.518Z,56.66
2018-05-13T03:17:53.987Z,56.22
2018-05-13T03:20:20.479Z,57.02
2018-05-13T03:22:46.983Z,56.23
2018-05-13T03:25:13.374Z,56.73
2018-05-13T03:27:39.948Z,56.71
2018-05-13T03:30:06.388Z,57.43
2018-05-13T03:32:32.777Z,58.00
2018-05-13T03:34:59.196Z,57.88
2018-05-13T03:37:25.646Z,57.96
2018-05-13T03:39:52.119Z,58.87
2018-05-13T03:42:18.587Z,58.90
2018-05-13T03:44:45.083Z,58.52
2018-05-13T03:47:12.304Z,58.83
2018-05-13T03:49:38.726Z,58.40
2018-05-13T03:52:05.133Z,58.33
2018-05-13T03:54:31.583Z,58.73
2018-05-13T03:56:58.038Z,57.97
2018-05-13T03:59:24.534Z,56.60
2018-05-13T04:01:50.946Z,55.36
2018-05-13T04:04:17.322Z,55.00
2018-05-13T04:06:43.784Z,56.06
2018-05-13T04:09:22.574Z,54.67
2018-05-13T04:12:01.162Z,54.00
2018-05-13T04:14:39.771Z,54.93
2018-05-13T04:17:07.181Z,57.87
2018-05-13T04:19:33.554Z,60.17
2018-05-13T04:22:00.875Z,60.02
2018-05-13T04:24:27.403Z,61.12
2018-05-13T04:26:53.933Z,61.37
2018-05-13T04:29:20.385Z,62.27
2018-05-13T04:31:46.814Z,62.14
2018-05-13T04:34:21.420Z,61.34
2018-05-13T04:36:47.883Z,59.58
2018-05-13T04:39:14.392Z,59.82
2018-05-13T04:41:41.091Z,57.43
2018-05-13T04:44:07.519Z,57.18
2018-05-13T04:46:34.027Z,57.40
2018-05-13T04:49:00.618Z,58.23
2018-05-13T04:51:27.091Z,59.36
2018-05-13T04:53:53.640Z,60.79
2018-05-13T04:56:21.052Z,62.07
2018-05-13T04:58:47.621Z,63.92
2018-05-13T05:01:14.095Z,66.01
2018-05-13T05:03:40.545Z,67.29
2018-05-13T05:06:07.012Z,67.96
2018-05-13T05:08:33.555Z,69.07
2018-05-13T05:11:00.035Z,68.85
2018-05-13T05:13:26.468Z,68.89
2018-05-13T05:15:52.894Z,68.82
2018-05-13T05:18:20.248Z,68.44
2018-05-13T05:20:46.820Z,69.28
2018-05-13T05:23:13.295Z,69.29
2018-05-13T05:25:39.694Z,69.81
2018-05-13T05:28:06.085Z,69.20
2018-05-13T05:30:32.514Z,68.27
2018-05-13T05:32:58.901Z,67.89
2018-05-13T05:35:25.413Z,66.62
2018-05-13T05:37:51.866Z,66.36
2018-05-13T05:40:18.276Z,66.27
2018-05-13T05:42:44.674Z,65.78
2018-05-13T05:45:11.170Z,66.09
2018-05-13T05:47:37.645Z,66.15
2018-05-13T05:50:04.155Z,66.09
2018-05-13T05:52:31.259Z,65.65
2018-05-13T05:54:57.704Z,65.00
2018-05-13T05:57:24.273Z,64.43
2018-05-13T05:59:50.716Z,63.62
2018-05-13T06:02:17.303Z,63.70
2018-05-13T06:04:43.717Z,63.87
2018-05-13T06:07:10.433Z,63.37
2018-05-13T06:09:36.887Z,63.64
2018-05-13T06:12:03.270Z,63.51
2018-05-13T06:14:29.722Z,63.39
2018-05-13T06:16:56.161Z,63.39
2018-05-13T06:19:22.600Z,62.78
2018-05-13T06:21:49.096Z,63.05
2018-05-13T06:24:15.495Z,62.27
2018-05-13T06:26:42.011Z,62.23
2018-05-13T06:29:08.452Z,61.40
2018-05-13T06:31:34.894Z,60.95
2018-05-13T06:34:01.351Z,59.65
2018-05-13T06:36:27.806Z,60.02
2018-05-13T06:38:54.250Z,61.57
2018-05-13T06:41:20.707Z,61.07
2018-05-13T06:43:47.080Z,59.95
2018-05-13T06:46:13.552Z,59.30
2018-05-13T06:48:39.982Z,59.41
2018-05-13T06:51:06.555Z,59.60
2018-05-13T06:53:32.953Z,59.51
2018-05-13T06:55:59.389Z,59.91
2018-05-13T06:58:25.861Z,59.29
2018-05-13T07:00:52.300Z,59.33
2018-05-13T07:03:18.801Z,59.68
2018-05-13T07:05:45.203Z,59.96
2018-05-13T07:08:11.607Z,59.17
2018-05-13T07:10:38.201Z,59.42
2018-05-13T07:13:04.705Z,59.11
2018-05-13T07:15:31.183Z,60.28
2018-05-13T07:17:57.728Z,61.43
2018-05-13T07:20:25.293Z,61.19
2018-05-13T07:22:51.744Z,60.59
2018-05-13T07:25:18.236Z,60.77
2018-05-13T07:27:44.699Z,60.22
2018-05-13T07:30:11.115Z,59.48
2018-05-13T07:32:37.563Z,59.03
2018-05-13T07:35:03.944Z,58.44
2018-05-13T07:37:30.437Z,57.43
2018-05-13T07:39:56.837Z,58.46
2018-05-13T07:42:23.256Z,58.25
2018-05-13T07:44:49.697Z,58.29
2018-05-13T07:47:16.146Z,58.23
2018-05-13T07:49:43.562Z,58.75
2018-05-13T07:52:09.946Z,58.49
2018-05-13T07:54:36.416Z,58.02
2018-05-13T07:57:02.883Z,58.32
2018-05-13T07:59:29.397Z,58.19
2018-05-13T08:01:55.974Z,57.73
2018-05-13T08:04:22.476Z,54.01
2018-05-13T08:06:48.949Z,52.81
2018-05-13T08:09:15.385Z,53.58
2018-05-13T08:11:41.801Z,53.31
2018-05-13T08:14:08.338Z,54.67
2018-05-13T08:16:34.869Z,54.71
2018-05-13T08:19:01.296Z,50.45
2018-05-13T08:21:27.737Z,49.27
2018-05-13T08:23:54.160Z,49.44
2018-05-13T08:26:20.563Z,50.79
2018-05-13T08:28:47.054Z,51.75
2018-05-13T08:31:14.185Z,52.28
2018-05-13T08:33:40.610Z,48.05
2018-05-13T08:36:07.044Z,48.01
2018-05-13T08:38:33.561Z,49.04
2018-05-13T08:41:00.017Z,49.94
2018-05-13T08:43:26.405Z,49.58
2018-05-13T08:45:53.109Z,47.60
2018-05-13T08:48:19.519Z,48.10
2018-05-13T08:50:45.947Z,46.78
2018-05-13T08:53:12.641Z,48.33
2018-05-13T08:55:39.101Z,48.79
2018-05-13T08:58:05.513Z,49.32
2018-05-13T09:00:32.005Z,49.93
2018-05-13T09:02:58.415Z,50.49
2018-05-13T09:05:24.870Z,49.93
2018-05-13T09:07:51.424Z,48.06
2018-05-13T09:10:17.886Z,49.30
2018-05-13T09:12:44.356Z,51.05
2018-05-13T09:15:10.764Z,47.86
2018-05-13T09:17:37.322Z,47.77
2018-05-13T09:20:03.976Z,46.64
2018-05-13T09:22:30.438Z,47.94
2018-05-13T09:24:57.170Z,46.00
2018-05-13T09:27:23.658Z,50.17
2018-05-13T09:29:50.369Z,46.04
2018-05-13T09:32:16.843Z,46.60
2018-05-13T09:37:24.262Z,47.69
2018-05-13T09:39:50.895Z,47.82
2018-05-13T09:42:17.408Z,48.22
2018-05-13T09:44:44.028Z,49.78
2018-05-13T09:47:10.399Z,48.92
2018-05-13T09:49:36.842Z,48.47
2018-05-13T09:52:03.346Z,51.22
2018-05-13T09:54:29.801Z,47.25
2018-05-13T09:56:56.281Z,49.86
2018-05-13T09:59:22.722Z,45.89
2018-05-13T10:01:49.158Z,46.28
2018-05-13T10:04:15.616Z,46.61
2018-05-13T10:06:42.110Z,46.35
2018-05-13T10:09:08.586Z,47.48
2018-05-13T10:11:35.162Z,47.47
2018-05-13T10:14:01.598Z,48.49
2018-05-13T10:16:28.400Z,45.32
2018-05-13T10:18:54.839Z,45.32
2018-05-13T10:21:21.428Z,44.92
2018-05-13T10:23:47.814Z,46.44
2018-05-13T10:26:14.252Z,44.94
2018-05-13T10:28:40.657Z,45.17
2018-05-13T10:31:07.212Z,49.47
2018-05-13T10:33:33.677Z,44.93
2018-05-13T10:36:00.097Z,45.31
2018-05-13T10:38:26.502Z,44.59
2018-05-13T10:40:52.965Z,46.43
2018-05-13T10:43:19.513Z,47.73
2018-05-13T10:45:47.033Z,44.13
2018-05-13T10:48:13.491Z,44.63
2018-05-13T10:50:39.922Z,46.41
2018-05-13T10:53:06.344Z,44.40
2018-05-13T10:55:32.751Z,44.54
2018-05-13T10:57:59.249Z,44.46
2018-05-13T11:00:25.796Z,45.48
2018-05-13T11:02:52.252Z,45.47
2018-05-13T11:05:18.670Z,46.18
2018-05-13T11:07:45.186Z,44.31
2018-05-13T11:10:11.647Z,45.07
2018-05-13T11:12:38.108Z,44.89
2018-05-13T11:15:04.547Z,44.95
2018-05-13T11:17:31.279Z,44.21
2018-05-13T11:19:57.683Z,43.86
2018-05-13T11:22:24.138Z,44.60
2018-05-13T11:24:50.525Z,43.22
2018-05-13T11:27:16.950Z,43.77
2018-05-13T11:29:43.427Z,43.27
2018-05-13T11:32:09.871Z,42.18
2018-05-13T11:34:36.294Z,42.68
2018-05-13T11:37:02.792Z,43.31
2018-05-13T11:39:29.193Z,44.20
2018-05-13T11:41:56.418Z,44.21
2018-05-13T11:44:22.895Z,44.47
2018-05-13T11:46:49.447Z,44.38
2018-05-13T11:49:15.842Z,44.62
2018-05-13T11:51:42.309Z,44.36
2018-05-13T11:54:08.683Z,49.49
2018-05-13T11:56:35.281Z,45.64
2018-05-13T11:59:01.644Z,44.26
2018-05-13T12:01:28.109Z,43.72
2018-05-13T12:03:54.604Z,45.14
2018-05-13T12:06:20.998Z,43.65
2018-05-13T12:08:47.616Z,44.04
2018-05-13T12:11:14.094Z,44.07
2018-05-13T12:13:40.582Z,44.02
2018-05-13T12:16:07.022Z,44.11
2018-05-13T12:18:33.386Z,43.17
2018-05-13T12:20:59.925Z,41.95
2018-05-13T12:23:26.456Z,42.43
2018-05-13T12:25:52.895Z,43.80
2018-05-13T12:28:19.343Z,42.78
2018-05-13T12:30:45.729Z,43.13
2018-05-13T12:33:12.132Z,42.03
2018-05-13T12:35:38.573Z,42.59
2018-05-13T12:38:12.010Z,41.85
2018-05-13T12:40:38.489Z,41.81
2018-05-13T12:43:04.891Z,42.08
2018-05-13T12:45:31.316Z,41.80
2018-05-13T12:47:57.906Z,41.05
2018-05-13T12:50:24.428Z,41.43
2018-05-13T12:52:50.869Z,42.60
2018-05-13T12:55:17.398Z,41.44
2018-05-13T12:57:43.903Z,38.52
2018-05-13T13:00:10.373Z,39.38
2018-05-13T13:02:36.807Z,39.49
2018-05-13T13:05:03.344Z,40.06
2018-05-13T13:07:29.751Z,42.30
2018-05-13T13:09:56.206Z,39.33
2018-05-13T13:12:22.624Z,43.48
2018-05-13T13:14:49.103Z,39.31
2018-05-13T13:17:15.514Z,46.13
2018-05-13T13:19:41.953Z,39.09
2018-05-13T13:22:08.430Z,38.28
2018-05-13T13:24:34.936Z,39.18
2018-05-13T13:27:01.350Z,38.03
2018-05-13T13:29:27.958Z,42.13
2018-05-13T13:31:54.449Z,38.19
2018-05-13T13:34:20.995Z,37.57
2018-05-13T13:36:47.407Z,38.35
2018-05-13T13:39:13.863Z,37.67
2018-05-13T13:41:40.386Z,38.37
2018-05-13T13:44:06.758Z,38.25
2018-05-13T13:46:33.235Z,37.03
2018-05-13T13:48:59.705Z,38.58
2018-05-13T13:51:26.090Z,41.17
2018-05-13T13:53:52.445Z,38.03
2018-05-13T13:56:18.982Z,43.48
2018-05-13T13:58:45.498Z,42.03
2018-05-13T14:01:12.110Z,37.43
2018-05-13T14:03:38.580Z,37.29
2018-05-13T14:06:05.058Z,37.31
2018-05-13T14:08:31.582Z,39.10
2018-05-13T14:10:57.927Z,37.51
2018-05-13T14:13:24.369Z,39.71
2018-05-13T14:15:50.834Z,36.85
2018-05-13T14:18:17.330Z,35.82
2018-05-13T14:20:43.757Z,36.43
2018-05-13T14:23:10.289Z,37.40
2018-05-13T14:25:36.715Z,38.33
2018-05-13T14:28:03.155Z,38.88
2018-05-13T14:30:29.719Z,38.32
2018-05-13T14:32:56.236Z,37.56
2018-05-13T14:35:22.786Z,44.38
2018-05-13T14:37:49.295Z,36.43
2018-05-13T14:40:15.791Z,37.07
2018-05-13T14:42:42.241Z,36.87
2018-05-13T14:45:08.656Z,37.64
2018-05-13T14:47:35.072Z,36.94
2018-05-13T14:50:01.645Z,36.34
2018-05-13T14:52:28.262Z,36.94
2018-05-13T14:54:54.790Z,38.95
2018-05-13T14:57:21.344Z,37.09
2018-05-13T14:59:47.836Z,36.71
2018-05-13T15:02:14.362Z,37.15
2018-05-13T15:04:40.818Z,37.17
2018-05-13T15:07:07.254Z,39.66
2018-05-13T15:09:33.745Z,39.90
2018-05-13T15:12:00.228Z,36.99
2018-05-13T15:14:26.713Z,37.50
2018-05-13T15:16:53.265Z,37.09
2018-05-13T15:19:19.763Z,37.47
2018-05-13T15:21:46.183Z,37.91
2018-05-13T15:24:12.717Z,38.20
2018-05-13T15:26:39.194Z,38.62
2018-05-13T15:29:05.771Z,38.52
2018-05-13T15:31:32.187Z,39.02
2018-05-13T15:33:58.546Z,38.34
2018-05-13T15:36:25.009Z,38.03
2018-05-13T15:38:51.600Z,38.68
2018-05-13T15:41:18.115Z,38.98
2018-05-13T15:43:44.466Z,38.50
2018-05-13T15:46:10.921Z,39.39
2018-05-13T15:48:37.360Z,39.48
2018-05-13T15:51:03.869Z,39.74
2018-05-13T15:53:30.258Z,39.35
2018-05-13T15:55:56.763Z,40.60
2018-05-13T15:58:23.182Z,41.57
2018-05-13T16:00:49.712Z,42.42
2018-05-13T16:03:16.215Z,43.25
2018-05-13T16:05:42.553Z,43.68
2018-05-13T16:08:09.009Z,44.10
2018-05-13T16:10:35.343Z,44.59
2018-05-13T16:13:01.799Z,44.73
2018-05-13T16:15:28.332Z,45.06
2018-05-13T16:17:54.789Z,45.51
2018-05-13T16:20:21.332Z,46.29
2018-05-13T16:22:47.888Z,46.52
2018-05-13T16:25:14.364Z,46.94
2018-05-13T16:27:40.853Z,47.17
2018-05-13T16:30:07.996Z,47.44
2018-05-13T16:32:34.485Z,47.83
2018-05-13T16:35:01.620Z,48.30
2018-05-13T16:37:55.743Z,48.44
2018-05-13T16:40:22.132Z,48.81
2018-05-13T16:42:48.627Z,48.89
2018-05-13T17:30:16.950Z,52.50
2018-05-13T17:32:43.441Z,52.73
2018-05-13T17:35:10.007Z,53.06
2018-05-13T17:37:37.521Z,53.03
2018-05-13T17:40:03.972Z,53.24
2018-05-13T17:42:33.320Z,53.45
2018-05-13T17:45:00.639Z,53.64
2018-05-13T17:47:27.280Z,53.99
2018-05-13T17:49:53.701Z,54.36
2018-05-13T17:52:20.046Z,54.62
2018-05-13T17:54:46.437Z,54.76
2018-05-13T17:57:12.971Z,55.17
2018-05-13T17:59:39.430Z,55.34
2018-05-13T18:02:05.903Z,55.49
2018-05-13T18:04:32.371Z,55.88
2018-05-13T18:06:58.897Z,56.44
2018-05-13T18:09:25.266Z,55.83
2018-05-13T18:11:51.776Z,56.39
2018-05-13T18:14:18.147Z,57.08
2018-05-13T18:16:44.527Z,57.44
2018-05-13T18:19:10.951Z,57.25
2018-05-13T18:21:37.511Z,57.26
2018-05-13T18:24:04.075Z,57.45
2018-05-13T18:26:30.562Z,57.62
2018-05-13T18:28:57.018Z,57.59
2018-05-13T18:31:24.044Z,57.80
2018-05-13T18:33:50.631Z,57.66
2018-05-13T18:36:17.006Z,57.91
2018-05-13T18:38:43.409Z,58.23
2018-05-13T18:41:09.724Z,57.47
2018-05-13T18:43:36.170Z,57.63
2018-05-13T18:46:02.614Z,58.03
2018-05-13T18:48:29.048Z,57.98
2018-05-13T18:50:55.633Z,58.47
2018-05-13T18:53:22.103Z,58.27
2018-05-13T18:55:48.557Z,58.39
2018-05-13T18:58:14.970Z,58.67
2018-05-13T19:00:41.467Z,59.18
2018-05-13T19:03:07.877Z,58.90
2018-05-13T19:05:34.331Z,58.82
2018-05-13T19:08:00.739Z,59.12
2018-05-13T19:10:27.268Z,59.27
2018-05-13T19:12:53.989Z,58.82
2018-05-13T19:15:20.518Z,59.07
2018-05-13T19:17:46.825Z,59.17
2018-05-13T19:20:13.301Z,59.56
2018-05-13T19:22:39.828Z,59.66
2018-05-13T19:25:06.185Z,59.65
2018-05-13T19:27:32.805Z,59.61
2018-05-13T19:29:59.342Z,59.81
2018-05-13T19:32:25.925Z,59.83
2018-05-13T19:34:52.386Z,59.84
2018-05-13T19:37:18.726Z,60.21
2018-05-13T19:39:45.243Z,60.13
2018-05-13T19:42:11.714Z,60.54
2018-05-13T19:44:38.166Z,60.46
2018-05-13T19:47:04.623Z,60.46
2018-05-13T19:49:30.961Z,60.87
2018-05-13T19:51:57.322Z,61.21
2018-05-13T19:54:23.914Z,61.36
2018-05-13T19:56:50.564Z,61.64
2018-05-13T19:59:17.009Z,62.30
2018-05-13T20:01:43.374Z,62.24
2018-05-13T20:04:09.803Z,62.21
2018-05-13T20:06:36.207Z,62.14
2018-05-13T20:09:02.892Z,61.90
2018-05-13T20:11:29.275Z,62.00
2018-05-13T20:13:55.618Z,62.04
2018-05-13T20:16:22.013Z,62.06
2018-05-13T20:18:48.523Z,62.22
2018-05-13T20:21:14.884Z,62.36
2018-05-13T20:23:41.433Z,62.60
2018-05-13T20:26:08.673Z,62.48
2018-05-13T20:28:35.073Z,62.42
2018-05-13T20:31:01.449Z,62.40
2018-05-13T20:33:27.883Z,62.30
2018-05-13T20:35:54.352Z,62.55
2018-05-13T20:38:20.696Z,63.81
2018-05-13T20:40:47.117Z,63.86
2018-05-13T20:43:13.579Z,64.13
2018-05-13T20:45:40.033Z,63.95
2018-05-13T20:48:06.531Z,64.32
2018-05-13T20:50:33.030Z,64.55
2018-05-13T20:52:59.441Z,64.32
2018-05-13T20:55:25.888Z,64.04
2018-05-13T20:57:52.346Z,65.05
2018-05-13T21:00:18.810Z,65.19
2018-05-13T21:02:45.275Z,65.43
2018-05-13T21:05:11.736Z,65.35
2018-05-13T21:07:38.160Z,65.32
2018-05-13T21:10:04.649Z,65.64
2018-05-13T21:12:31.129Z,65.89
2018-05-13T21:14:57.490Z,65.32
2018-05-13T21:17:24.000Z,65.20
2018-05-13T21:19:50.403Z,65.18
2018-05-13T21:22:16.766Z,65.72
2018-05-13T21:24:43.106Z,66.46
2018-05-13T21:27:09.495Z,67.27
2018-05-13T21:29:35.876Z,67.51
2018-05-13T21:32:02.446Z,67.66
2018-05-13T21:34:28.859Z,68.11
2018-05-13T21:36:55.203Z,68.62
2018-05-13T21:39:21.642Z,68.95
2018-05-13T21:41:48.111Z,68.56
2018-05-13T21:44:14.457Z,68.82
2018-05-13T21:46:40.910Z,68.34
2018-05-13T21:49:07.363Z,68.00
2018-05-13T21:51:33.764Z,68.25
2018-05-13T21:54:00.748Z,68.37
2018-05-13T21:56:27.134Z,69.02
2018-05-13T21:58:53.511Z,69.16
2018-05-13T22:01:19.928Z,69.29
2018-05-13T22:03:46.337Z,68.80
2018-05-13T22:06:12.752Z,69.52
2018-05-13T22:08:39.214Z,70.02
2018-05-13T22:11:05.664Z,69.80
2018-05-13T22:13:32.119Z,70.30
2018-05-13T22:15:58.561Z,70.58
2018-05-13T22:18:25.049Z,70.31
2018-05-13T22:20:51.453Z,69.84
2018-05-13T22:23:17.849Z,70.26
2018-05-13T22:25:44.291Z,69.96
2018-05-13T22:28:10.592Z,68.88
2018-05-13T22:30:37.099Z,68.00
2018-05-13T22:33:03.474Z,67.49
2018-05-13T22:35:29.953Z,67.56
2018-05-13T22:37:57.189Z,68.21
2018-05-13T22:40:23.493Z,68.60
2018-05-13T22:42:49.812Z,68.58
2018-05-13T22:45:16.132Z,70.17
2018-05-13T22:47:42.509Z,70.51
2018-05-13T22:50:08.961Z,69.58
2018-05-13T22:52:35.359Z,69.65
2018-05-13T22:55:01.718Z,69.10
2018-05-13T22:57:28.132Z,68.22
2018-05-13T22:59:54.544Z,68.43
2018-05-13T23:02:20.904Z,69.71
2018-05-13T23:04:47.377Z,70.29
2018-05-13T23:07:13.814Z,70.73
2018-05-13T23:09:40.296Z,71.38
2018-05-13T23:12:06.685Z,71.46
2018-05-13T23:14:33.490Z,71.34
2018-05-13T23:16:59.877Z,71.64
2018-05-13T23:19:26.355Z,71.70
2018-05-13T23:21:52.817Z,71.53
2018-05-13T23:24:19.253Z,71.11
2018-05-13T23:26:45.685Z,71.39
2018-05-13T23:29:12.077Z,71.19
2018-05-13T23:31:38.429Z,71.81
2018-05-13T23:34:04.830Z,71.92
2018-05-13T23:36:31.290Z,71.42
2018-05-13T23:38:57.689Z,71.65
2018-05-13T23:41:24.224Z,72.04
2018-05-13T23:43:50.646Z,71.48
2018-05-13T23:46:17.005Z,71.41
2018-05-13T23:48:44.466Z,71.82
2018-05-13T23:51:10.918Z,71.90
2018-05-13T23:53:37.377Z,71.87
2018-05-13T23:56:03.880Z,72.12
2018-05-13T23:58:30.413Z,72.17
